Latest Coastal Weather Observations for Aireys Inlet

IDV60701

Issued at 2:35 am EDT Saturday 25 October 2014 (issued every 10 minutes, with the page automatically refreshed every 10 minutes)

About coastal observations | Map of coastal stations | Coastal observations for VIC | Marine services | Other Formats
Station Details ID: 090180 Name: AIREYS INLET Lat: -38.46 Lon: 144.09 Height: 95.0 m
Data from the previous 72 hours. | See also: Recent months at Aireys Inlet
Date/Time
EDT
Temp

°C
Wind Pressure Rain
since 9am
mm
Weather Cloud Vis
km
Sea
Height
m
Swell
Dir
 
Speed
knots
Gust
knots
hPa Trend Height
m
Period
s
Dir
25/02:30am 13.1 WNW 0 0 - - 0.0 - - - - - - -
25/02:00am 13.2 NW 1 3 - - 0.0 - - - - - - -
25/01:30am 12.9 W 5 6 - - 0.0 - - - - - - -
25/01:00am 12.6 W 6 8 - - 0.0 - - - - - - -
25/12:30am 12.4 W 6 8 - - 0.0 - - - - - - -
25/12:00am 12.7 NNW 4 7 - - 0.0 - - - - - - -
 
Date/Time
EDT
Temp

°C
Wind Pressure Rain
since 9am
mm
Weather Cloud Vis
km
Sea
Height
m
Swell
Dir
 
Speed
knots
Gust
knots
hPa Trend Height
m
Period
s
Dir
24/11:30pm 13.0 S 2 3 - - 0.0 - - - - - - -
24/11:00pm 13.1 N 3 5 - - 0.0 - - - - - - -
24/10:30pm 13.4 N 5 8 - - 0.0 - - - - - - -
24/10:00pm 14.0 SW 6 11 - - 0.0 - - - - - - -
24/09:30pm 14.0 SW 9 15 - - 0.0 - - - - - - -
24/09:00pm 14.1 SW 12 17 - - 0.0 - - - - - - -
24/08:30pm 14.8 SW 8 13 - - 0.0 - - - - - - -
24/08:00pm 15.5 S 3 7 - - 0.0 - - - - - - -
24/07:30pm 16.6 SSW 1 2 - - 0.0 - - - - - - -
24/07:00pm 17.0 SSW 7 11 - - 0.0 - - - - - - -
24/06:30pm 17.9 S 5 8 - - 0.0 - - - - - - -
24/06:00pm 17.1 S 3 6 - - 0.0 - - - - - - -
24/05:30pm 18.4 S 5 9 - - 0.0 - - - - - - -
24/05:00pm 18.1 S 5 9 - - 0.0 - - - - - - -
24/04:30pm 19.0 SSW 6 9 - - 0.0 - - - - - - -
24/04:00pm 20.1 SW 5 9 - - 0.0 - - - - - - -
24/03:30pm 20.1 SSW 6 10 - - 0.0 - - - - - - -
24/03:00pm 21.1 SSW 7 10 - - 0.0 - - - - - - -
24/02:30pm 20.8 SW 8 12 - - 0.0 - - - - - - -
24/02:00pm 21.7 SSW 7 12 - - 0.0 - - - - - - -
24/01:30pm 25.1 W 10 15 - - 0.0 - - - - - - -
24/01:00pm 23.9 NW 8 14 - - 0.0 - - - - - - -
24/12:30pm 24.4 WNW 8 14 - - 0.0 - - - - - - -
24/12:00pm 23.2 W 9 16 - - 0.0 - - - - - - -
24/11:30am 22.5 NNW 5 8 - - 0.0 - - - - - - -
24/11:00am 21.9 NW 7 10 - - 0.0 - - - - - - -
24/10:30am 20.9 NNW 4 7 - - 0.0 - - - - - - -
24/10:00am 19.2 N 3 7 - - 0.0 - - - - - - -
24/09:30am 17.7 NNW 3 4 - - 0.0 - - - - - - -
24/09:00am 16.1 ENE 2 3 - - 0.0 - - - - - - -
24/08:30am 15.6 E 1 2 - - 0.0 - - - - - - -
24/08:00am 15.1 CALM 0 0 - - 0.0 - - - - - - -
24/07:30am 14.8 CALM 0 1 - - 0.0 - - - - - - -
24/07:00am 14.5 E 2 3 - - 0.0 - - - - - - -
24/06:30am 14.4 NE 2 3 - - 0.0 - - - - - - -
24/06:00am 14.3 E 3 6 - - 0.0 - - - - - - -
24/05:30am 14.3 ESE 4 8 - - 0.0 - - - - - - -
24/05:00am 14.3 ESE 5 9 - - 0.0 - - - - - - -
24/04:30am 14.3 ESE 5 10 - - 0.0 - - - - - - -
24/04:00am 14.2 ESE 6 11 - - 0.0 - - - - - - -
24/03:30am 14.2 ESE 7 12 - - 0.0 - - - - - - -
24/03:00am 14.1 ESE 8 13 - - 0.0 - - - - - - -
24/02:30am 14.1 ESE 8 16 - - 0.0 - - - - - - -
24/02:00am 14.0 ESE 7 14 - - 0.0 - - - - - - -
24/01:30am 14.0 ESE 6 12 - - 0.0 - - - - - - -
24/01:00am 14.0 ESE 8 16 - - 0.0 - - - - - - -
24/12:30am 14.0 ESE 7 11 - - 0.0 - - - - - - -
24/12:00am 14.0 ESE 9 15 - - 0.0 - - - - - - -
 
Date/Time
EDT
Temp

°C
Wind Pressure Rain
since 9am
mm
Weather Cloud Vis
km
Sea
Height
m
Swell
Dir
 
Speed
knots
Gust
knots
hPa Trend Height
m
Period
s
Dir
23/11:30pm 14.1 ESE 9 15 - - 0.0 - - - - - - -
23/11:00pm 14.1 ESE 9 14 - - 0.0 - - - - - - -
23/10:30pm 14.1 ESE 9 16 - - 0.0 - - - - - - -
23/10:00pm 14.1 ESE 11 18 - - 0.0 - - - - - - -
23/09:30pm 14.2 ESE 10 18 - - 0.0 - - - - - - -
23/09:00pm 14.4 ESE 11 16 - - 0.0 - - - - - - -
23/08:30pm 14.5 ESE 9 17 - - 0.0 - - - - - - -
23/08:00pm 14.5 ESE 9 17 - - 0.0 - - - - - - -
23/07:30pm 14.7 ESE 8 16 - - 0.0 - - - - - - -
23/07:00pm 14.7 ESE 7 14 - - 0.0 - - - - - - -
23/06:30pm 14.8 ESE 8 15 - - 0.0 - - - - - - -
23/06:00pm 14.8 ESE 8 15 - - 0.0 - - - - - - -
23/05:30pm 14.1 SSW 4 7 - - 0.0 - - - - - - -
23/05:00pm 14.0 SSW 5 8 - - 0.0 - - - - - - -
23/04:30pm 14.1 S 4 6 - - 0.0 - - - - - - -
23/04:00pm 14.3 S 4 7 - - 0.0 - - - - - - -
23/03:30pm 14.8 SSE 4 7 - - 0.0 - - - - - - -
23/03:00pm 14.9 SSE 5 8 - - 0.0 - - - - - - -
23/02:30pm 14.6 SE 6 8 - - 0.0 - - - - - - -
23/02:00pm 15.3 SSE 5 9 - - 0.0 - - - - - - -
23/01:30pm 15.3 SSE 5 7 - - 0.0 - - - - - - -
23/01:00pm 15.6 S 5 8 - - 0.0 - - - - - - -
23/12:30pm 15.7 S 6 8 - - 0.0 - - - - - - -
23/12:00pm 15.0 S 6 8 - - 0.0 - - - - - - -
23/11:30am 15.6 SSW 6 9 - - 0.0 - - - - - - -
23/11:00am 15.2 SSW 6 9 - - 0.0 - - - - - - -
23/10:30am 14.8 SSW 7 10 - - 0.0 - - - - - - -
23/10:00am 14.6 SSW 6 11 - - 0.0 - - - - - - -
23/09:30am 14.2 S 9 13 - - 0.0 - - - - - - -
23/09:00am 14.1 S 7 10 - - 0.0 - - - - - - -
23/08:30am 13.7 S 8 11 - - 0.0 - - - - - - -
23/08:00am 13.2 S 9 13 - - 0.0 - - - - - - -
23/07:30am 13.2 S 8 13 - - 0.0 - - - - - - -
23/07:00am 13.0 S 10 14 - - 0.0 - - - - - - -
23/06:30am 12.9 S 9 13 - - 0.0 - - - - - - -
23/06:00am 13.0 S 10 15 - - 0.0 - - - - - - -
23/05:30am 13.0 S 9 14 - - 0.0 - - - - - - -
23/05:00am 13.0 S 10 14 - - 0.0 - - - - - - -
23/04:30am 13.1 SSW 9 15 - - 0.0 - - - - - - -
23/04:00am 13.4 SSW 9 13 - - 0.0 - - - - - - -
23/03:30am 13.4 SW 11 16 - - 0.0 - - - - - - -
23/03:00am 13.4 SSW 11 15 - - 0.0 - - - - - - -
23/02:30am 13.4 SW 12 16 - - 0.0 - - - - - - -
23/02:00am 13.5 SSW 12 19 - - 0.0 - - - - - - -
23/01:30am 13.5 SW 14 20 - - 0.0 - - - - - - -
23/01:00am 13.4 SW 16 24 - - 0.0 - - - - - - -
23/12:46am 13.4 SW 16 26 - - 0.0 - - - - - - -
23/12:30am 13.5 SW 17 24 - - 0.0 - - - - - - -
23/12:00am 13.5 SSW 15 26 - - 0.0 - - - - - - -
 
Date/Time
EDT
Temp

°C
Wind Pressure Rain
since 9am
mm
Weather Cloud Vis
km
Sea
Height
m
Swell
Dir
 
Speed
knots
Gust
knots
hPa Trend Height
m
Period
s
Dir
22/11:42pm 13.3 SSW 17 27 - - 0.0 - - - - - - -
22/11:30pm 13.4 SSW 15 23 - - 0.0 - - - - - - -
22/11:00pm 13.6 SSW 13 19 - - 0.0 - - - - - - -
22/10:30pm 13.7 SW 14 20 - - 0.0 - - - - - - -
22/10:00pm 13.8 SSW 18 24 - - 0.0 - - - - - - -
22/09:30pm 14.0 SSW 17 25 - - 0.0 - - - - - - -
22/09:00pm 14.3 SW 17 24 - - 0.0 - - - - - - -
22/08:30pm 14.9 SSW 16 25 - - 0.0 - - - - - - -
22/08:28pm 14.9 SSW 15 25 - - 0.0 - - - - - - -
22/08:00pm 15.3 SSW 11 16 - - 0.0 - - - - - - -
22/07:30pm 16.3 SSW 6 10 - - 0.0 - - - - - - -
22/07:00pm 18.2 SW 6 12 - - 0.0 - - - - - - -
22/06:30pm 19.3 SSW 9 14 - - 0.0 - - - - - - -
22/06:00pm 21.0 SW 10 14 - - 0.0 - - - - - - -
22/05:30pm 23.0 SW 9 14 - - 0.0 - - - - - - -
22/05:00pm 21.1 SW 9 12 - - 0.0 - - - - - - -
22/04:30pm 21.3 SW 12 17 - - 0.0 - - - - - - -
22/04:00pm 23.7 SW 12 18 - - 0.0 - - - - - - -
22/03:54pm 26.2 WSW 10 14 - - 0.0 - - - - - - -
22/03:30pm 32.2 W 4 7 - - 0.0 - - - - - - -
22/03:00pm 29.9 ENE 1 3 - - 0.0 - - - - - - -
22/02:30pm 29.3 N 1 4 - - 0.0 - - - - - - -
22/02:00pm 28.9 E 3 4 - - 0.0 - - - - - - -
22/01:30pm 28.6 N 2 4 - - 0.0 - - - - - - -
22/01:00pm 27.8 NNW 7 12 - - 0.0 - - - - - - -
22/12:30pm 28.9 WNW 5 8 - - 0.0 - - - - - - -
22/12:00pm 28.9 NNW 3 5 - - 0.0 - - - - - - -
22/11:30am 28.1 NW 5 10 - - 0.0 - - - - - - -
22/11:00am 27.3 NNW 5 9 - - 0.0 - - - - - - -
22/10:30am 25.8 NNW 6 10 - - 0.0 - - - - - - -
22/10:00am 23.9 NW 8 15 - - 0.0 - - - - - - -
22/09:30am 23.1 NW 11 19 - - 0.0 - - - - - - -
22/09:00am 21.8 NNW 6 10 - - 0.0 - - - - - - -
22/08:30am 20.4 NW 3 9 - - 0.0 - - - - - - -
22/08:00am 19.0 SE 2 6 - - 0.0 - - - - - - -
22/07:30am 18.0 ENE 4 7 - - 0.0 - - - - - - -
22/07:00am 17.6 N 7 12 - - 0.0 - - - - - - -
22/06:30am 17.0 N 5 8 - - 0.0 - - - - - - -
22/06:00am 17.6 N 6 9 - - 0.0 - - - - - - -
22/05:30am 17.2 N 8 10 - - 0.0 - - - - - - -
22/05:00am 16.8 N 8 11 - - 0.0 - - - - - - -
22/04:30am 16.8 N 6 8 - - 0.0 - - - - - - -
22/04:00am 16.9 N 5 6 - - 0.0 - - - - - - -
22/03:30am 15.1 N 6 7 - - 0.0 - - - - - - -
22/03:00am 14.6 NE 6 7 - - 0.0 - - - - - - -

Other Formats:

Comma delimited format used in spreadsheet applications
http://www.bom.gov.au/fwo/IDV60701/IDV60701.94846.axf

JavaScript Object Notation format (JSON) in row-major order
http://www.bom.gov.au/fwo/IDV60701/IDV60701.94846.json